sensor_id;sensor_type;location;lat;lon;timestamp;pressure;altitude;pressure_sealevel;temperature;humidity
82413;BME280;72056;51.980;15.436;2023-11-18T00:01:31;101097.19;;;5.16;100.00
82413;BME280;72056;51.980;15.436;2023-11-18T00:04:18;101101.88;;;5.13;100.00
82413;BME280;72056;51.980;15.436;2023-11-18T00:06:49;101101.63;;;5.17;100.00
82413;BME280;72056;51.980;15.436;2023-11-18T00:09:20;101109.72;;;5.17;100.00
82413;BME280;72056;51.980;15.436;2023-11-18T00:11:47;101108.75;;;5.18;100.00
82413;BME280;72056;51.980;15.436;2023-11-18T00:14:15;101118.56;;;5.19;100.00
82413;BME280;72056;51.980;15.436;2023-11-18T00:16:42;101115.84;;;5.19;100.00
82413;BME280;72056;51.980;15.436;2023-11-18T00:19:09;101126.38;;;5.24;100.00
82413;BME280;72056;51.980;15.436;2023-11-18T00:21:36;101125.41;;;5.25;100.00
82413;BME280;72056;51.980;15.436;2023-11-18T00:24:03;101121.09;;;5.22;100.00
82413;BME280;72056;51.980;15.436;2023-11-18T00:26:31;101115.47;;;5.25;100.00
82413;BME280;72056;51.980;15.436;2023-11-18T00:29:02;101129.94;;;5.24;100.00
82413;BME280;72056;51.980;15.436;2023-11-18T00:31:29;101126.28;;;5.25;100.00
82413;BME280;72056;51.980;15.436;2023-11-18T00:33:59;101135.22;;;5.26;100.00
82413;BME280;72056;51.980;15.436;2023-11-18T00:36:27;101139.75;;;5.25;100.00
82413;BME280;72056;51.980;15.436;2023-11-18T00:38:58;101144.41;;;5.23;100.00
82413;BME280;72056;51.980;15.436;2023-11-18T00:41:24;101150.47;;;5.27;100.00
82413;BME280;72056;51.980;15.436;2023-11-18T00:43:52;101155.97;;;5.25;100.00
82413;BME280;72056;51.980;15.436;2023-11-18T00:46:24;101163.31;;;5.23;100.00
82413;BME280;72056;51.980;15.436;2023-11-18T00:48:50;101167.91;;;5.21;100.00
82413;BME280;72056;51.980;15.436;2023-11-18T00:51:17;101170.53;;;5.23;100.00
82413;BME280;72056;51.980;15.436;2023-11-18T00:53:45;101164.25;;;5.22;100.00
82413;BME280;72056;51.980;15.436;2023-11-18T00:56:15;101175.16;;;5.21;100.00
82413;BME280;72056;51.980;15.436;2023-11-18T00:58:43;101176.97;;;5.20;100.00
82413;BME280;72056;51.980;15.436;2023-11-18T01:01:11;101175.94;;;5.23;100.00
82413;BME280;72056;51.980;15.436;2023-11-18T01:03:37;101183.16;;;5.22;100.00
82413;BME280;72056;51.980;15.436;2023-11-18T01:06:09;101181.41;;;5.21;100.00
82413;BME280;72056;51.980;15.436;2023-11-18T01:08:35;101184.19;;;5.20;100.00
82413;BME280;72056;51.980;15.436;2023-11-18T01:11:03;101197.81;;;5.18;100.00
82413;BME280;72056;51.980;15.436;2023-11-18T01:13:30;101202.22;;;5.19;100.00
82413;BME280;72056;51.980;15.436;2023-11-18T01:16:03;101198.84;;;5.16;100.00
82413;BME280;72056;51.980;15.436;2023-11-18T01:18:30;101197.13;;;5.15;100.00
82413;BME280;72056;51.980;15.436;2023-11-18T01:20:57;101202.44;;;5.16;100.00
82413;BME280;72056;51.980;15.436;2023-11-18T01:23:24;101211.31;;;5.18;100.00
82413;BME280;72056;51.980;15.436;2023-11-18T01:25:55;101211.19;;;5.20;100.00
82413;BME280;72056;51.980;15.436;2023-11-18T01:28:23;101217.38;;;5.22;100.00
82413;BME280;72056;51.980;15.436;2023-11-18T01:30:53;101219.00;;;5.24;100.00
82413;BME280;72056;51.980;15.436;2023-11-18T01:33:19;101221.69;;;5.24;100.00
82413;BME280;72056;51.980;15.436;2023-11-18T01:35:49;101221.59;;;5.26;100.00
82413;BME280;72056;51.980;15.436;2023-11-18T01:38:20;101230.09;;;5.20;100.00
82413;BME280;72056;51.980;15.436;2023-11-18T01:40:51;101227.22;;;5.23;100.00
82413;BME280;72056;51.980;15.436;2023-11-18T01:43:21;101229.22;;;5.19;100.00
82413;BME280;72056;51.980;15.436;2023-11-18T01:45:53;101235.59;;;5.18;100.00
82413;BME280;72056;51.980;15.436;2023-11-18T01:48:28;101236.72;;;5.14;100.00
82413;BME280;72056;51.980;15.436;2023-11-18T01:50:56;101241.09;;;5.17;100.00
82413;BME280;72056;51.980;15.436;2023-11-18T01:53:23;101241.97;;;5.17;100.00
82413;BME280;72056;51.980;15.436;2023-11-18T01:55:50;101247.34;;;5.17;100.00
82413;BME280;72056;51.980;15.436;2023-11-18T01:58:21;101248.31;;;5.16;100.00
82413;BME280;72056;51.980;15.436;2023-11-18T02:00:49;101264.31;;;5.19;100.00
82413;BME280;72056;51.980;15.436;2023-11-18T02:03:17;101255.44;;;5.17;100.00
82413;BME280;72056;51.980;15.436;2023-11-18T02:05:44;101258.91;;;5.19;100.00
82413;BME280;72056;51.980;15.436;2023-11-18T02:08:11;101259.69;;;5.21;100.00
82413;BME280;72056;51.980;15.436;2023-11-18T02:10:54;101264.50;;;5.16;100.00
82413;BME280;72056;51.980;15.436;2023-11-18T02:13:29;101267.28;;;5.15;100.00
82413;BME280;72056;51.980;15.436;2023-11-18T02:15:57;101273.09;;;5.23;100.00
82413;BME280;72056;51.980;15.436;2023-11-18T02:18:25;101277.63;;;5.22;100.00
82413;BME280;72056;51.980;15.436;2023-11-18T02:20:54;101274.88;;;5.08;100.00
82413;BME280;72056;51.980;15.436;2023-11-18T02:23:24;101273.25;;;5.20;100.00
82413;BME280;72056;51.980;15.436;2023-11-18T02:25:52;101280.50;;;5.19;100.00
82413;BME280;72056;51.980;15.436;2023-11-18T02:28:19;101276.28;;;5.29;100.00
82413;BME280;72056;51.980;15.436;2023-11-18T02:30:46;101283.31;;;5.32;100.00
82413;BME280;72056;51.980;15.436;2023-11-18T02:33:42;101290.53;;;5.31;100.00
82413;BME280;72056;51.980;15.436;2023-11-18T02:39:05;101288.03;;;5.28;100.00
82413;BME280;72056;51.980;15.436;2023-11-18T02:41:39;101290.91;;;5.25;100.00
82413;BME280;72056;51.980;15.436;2023-11-18T02:44:06;101290.91;;;5.25;100.00
82413;BME280;72056;51.980;15.436;2023-11-18T02:46:36;101290.91;;;5.25;100.00
82413;BME280;72056;51.980;15.436;2023-11-18T02:49:04;101292.66;;;5.26;100.00
82413;BME280;72056;51.980;15.436;2023-11-18T02:51:32;101298.06;;;5.26;100.00
82413;BME280;72056;51.980;15.436;2023-11-18T02:54:06;101299.22;;;5.22;100.00
82413;BME280;72056;51.980;15.436;2023-11-18T02:56:38;101301.47;;;5.30;100.00
82413;BME280;72056;51.980;15.436;2023-11-18T02:59:05;101296.91;;;5.30;100.00
82413;BME280;72056;51.980;15.436;2023-11-18T03:01:33;101304.41;;;5.25;100.00
82413;BME280;72056;51.980;15.436;2023-11-18T03:04:02;101312.13;;;5.31;100.00
82413;BME280;72056;51.980;15.436;2023-11-18T03:06:31;101308.69;;;5.29;100.00
82413;BME280;72056;51.980;15.436;2023-11-18T03:09:01;101305.59;;;5.36;100.00
82413;BME280;72056;51.980;15.436;2023-11-18T03:11:29;101315.41;;;5.37;100.00
82413;BME280;72056;51.980;15.436;2023-11-18T03:13:57;101312.72;;;5.37;100.00
82413;BME280;72056;51.980;15.436;2023-11-18T03:16:24;101320.34;;;5.30;100.00
82413;BME280;72056;51.980;15.436;2023-11-18T03:18:51;101319.09;;;5.36;100.00
82413;BME280;72056;51.980;15.436;2023-11-18T03:21:18;101329.63;;;5.40;100.00
82413;BME280;72056;51.980;15.436;2023-11-18T03:23:47;101330.56;;;5.39;100.00
82413;BME280;72056;51.980;15.436;2023-11-18T03:26:14;101325.75;;;5.44;100.00
82413;BME280;72056;51.980;15.436;2023-11-18T03:28:45;101338.00;;;5.50;100.00
82413;BME280;72056;51.980;15.436;2023-11-18T03:31:16;101344.19;;;5.52;100.00
82413;BME280;72056;51.980;15.436;2023-11-18T03:33:43;101341.78;;;5.47;100.00
82413;BME280;72056;51.980;15.436;2023-11-18T03:36:10;101341.66;;;5.49;100.00
82413;BME280;72056;51.980;15.436;2023-11-18T03:38:38;101342.53;;;5.49;100.00
82413;BME280;72056;51.980;15.436;2023-11-18T03:41:05;101345.75;;;5.56;100.00
82413;BME280;72056;51.980;15.436;2023-11-18T03:43:34;101347.56;;;5.55;100.00
82413;BME280;72056;51.980;15.436;2023-11-18T03:46:01;101344.13;;;5.53;100.00
82413;BME280;72056;51.980;15.436;2023-11-18T03:48:27;101341.03;;;5.59;100.00
82413;BME280;72056;51.980;15.436;2023-11-18T03:50:54;101348.72;;;5.51;100.00
82413;BME280;72056;51.980;15.436;2023-11-18T03:53:25;101349.78;;;5.49;100.00
82413;BME280;72056;51.980;15.436;2023-11-18T03:55:52;101348.81;;;5.50;100.00
82413;BME280;72056;51.980;15.436;2023-11-18T03:58:19;101360.19;;;5.55;100.00
82413;BME280;72056;51.980;15.436;2023-11-18T04:00:45;101353.66;;;5.59;100.00
82413;BME280;72056;51.980;15.436;2023-11-18T04:03:11;101358.13;;;5.60;100.00
82413;BME280;72056;51.980;15.436;2023-11-18T04:05:38;101357.03;;;5.62;100.00
82413;BME280;72056;51.980;15.436;2023-11-18T04:08:05;101355.13;;;5.64;100.00
82413;BME280;72056;51.980;15.436;2023-11-18T04:10:33;101367.66;;;5.65;100.00
82413;BME280;72056;51.980;15.436;2023-11-18T04:13:04;101370.81;;;5.58;100.00
82413;BME280;72056;51.980;15.436;2023-11-18T04:15:31;101366.78;;;5.65;100.00
82413;BME280;72056;51.980;15.436;2023-11-18T04:18:02;101366.22;;;5.60;100.00
82413;BME280;72056;51.980;15.436;2023-11-18T04:20:29;101363.13;;;5.66;100.00
82413;BME280;72056;51.980;15.436;2023-11-18T04:22:56;101372.19;;;5.65;100.00
82413;BME280;72056;51.980;15.436;2023-11-18T04:25:26;101363.13;;;5.66;100.00
82413;BME280;72056;51.980;15.436;2023-11-18T04:27:58;101372.69;;;5.71;100.00
82413;BME280;72056;51.980;15.436;2023-11-18T04:30:25;101370.75;;;5.73;100.00
82413;BME280;72056;51.980;15.436;2023-11-18T04:32:56;101366.50;;;5.69;100.00
82413;BME280;72056;51.980;15.436;2023-11-18T04:35:23;101372.78;;;5.70;100.00
82413;BME280;72056;51.980;15.436;2023-11-18T04:37:50;101363.88;;;5.68;100.00
82413;BME280;72056;51.980;15.436;2023-11-18T04:40:21;101372.19;;;5.65;100.00
82413;BME280;72056;51.980;15.436;2023-11-18T04:42:52;101377.59;;;5.65;100.00
82413;BME280;72056;51.980;15.436;2023-11-18T04:45:21;101363.50;;;5.60;100.00
82413;BME280;72056;51.980;15.436;2023-11-18T04:47:47;101372.56;;;5.59;100.00
82413;BME280;72056;51.980;15.436;2023-11-18T04:50:17;101377.38;;;5.54;100.00
82413;BME280;72056;51.980;15.436;2023-11-18T04:52:43;101376.41;;;5.55;100.00
82413;BME280;72056;51.980;15.436;2023-11-18T04:55:10;101369.38;;;5.52;100.00
82413;BME280;72056;51.980;15.436;2023-11-18T04:57:46;101379.88;;;5.57;100.00
82413;BME280;72056;51.980;15.436;2023-11-18T05:00:14;101386.34;;;5.54;100.00
82413;BME280;72056;51.980;15.436;2023-11-18T05:02:43;101381.91;;;5.53;100.00
82413;BME280;72056;51.980;15.436;2023-11-18T05:05:15;101379.09;;;5.55;100.00
82413;BME280;72056;51.980;15.436;2023-11-18T05:07:46;101378.94;;;5.58;100.00
82413;BME280;72056;51.980;15.436;2023-11-18T05:10:14;101377.00;;;5.60;100.00
82413;BME280;72056;51.980;15.436;2023-11-18T05:12:41;101376.31;;;5.56;100.00
82413;BME280;72056;51.980;15.436;2023-11-18T05:15:10;101380.09;;;5.54;100.00
82413;BME280;72056;51.980;15.436;2023-11-18T05:17:37;101381.81;;;5.55;100.00
82413;BME280;72056;51.980;15.436;2023-11-18T05:20:05;101377.28;;;5.55;100.00
82413;BME280;72056;51.980;15.436;2023-11-18T05:22:35;101388.00;;;5.57;100.00
82413;BME280;72056;51.980;15.436;2023-11-18T05:25:05;101388.94;;;5.56;100.00
82413;BME280;72056;51.980;15.436;2023-11-18T05:27:32;101394.25;;;5.57;100.00
82413;BME280;72056;51.980;15.436;2023-11-18T05:30:04;101390.31;;;5.63;100.00
82413;BME280;72056;51.980;15.436;2023-11-18T05:32:36;101390.31;;;5.63;100.00
82413;BME280;72056;51.980;15.436;2023-11-18T05:35:04;101394.75;;;5.64;100.00
82413;BME280;72056;51.980;15.436;2023-11-18T05:37:36;101388.28;;;5.66;100.00
82413;BME280;72056;51.980;15.436;2023-11-18T05:40:06;101393.59;;;5.68;100.00
82413;BME280;72056;51.980;15.436;2023-11-18T05:42:34;101397.38;;;5.65;100.00
82413;BME280;72056;51.980;15.436;2023-11-18T05:45:04;101400.16;;;5.64;100.00
82413;BME280;72056;51.980;15.436;2023-11-18T05:47:31;101400.16;;;5.64;100.00
82413;BME280;72056;51.980;15.436;2023-11-18T05:49:58;101400.25;;;5.62;100.00
82413;BME280;72056;51.980;15.436;2023-11-18T05:52:29;101390.16;;;5.66;100.00
82413;BME280;72056;51.980;15.436;2023-11-18T05:54:56;101395.72;;;5.63;100.00
82413;BME280;72056;51.980;15.436;2023-11-18T05:57:24;101392.16;;;5.62;100.00
82413;BME280;72056;51.980;15.436;2023-11-18T05:59:53;101401.91;;;5.65;100.00
82413;BME280;72056;51.980;15.436;2023-11-18T06:02:20;101392.66;;;5.69;100.00
82413;BME280;72056;51.980;15.436;2023-11-18T06:04:47;101396.31;;;5.68;100.00
82413;BME280;72056;51.980;15.436;2023-11-18T06:07:15;101410.41;;;5.73;100.00
82413;BME280;72056;51.980;15.436;2023-11-18T06:09:44;101406.94;;;5.71;100.00
82413;BME280;72056;51.980;15.436;2023-11-18T06:12:10;101413.22;;;5.71;100.00
82413;BME280;72056;51.980;15.436;2023-11-18T06:14:37;101411.56;;;5.69;100.00
82413;BME280;72056;51.980;15.436;2023-11-18T06:17:05;101422.34;;;5.69;100.00
82413;BME280;72056;51.980;15.436;2023-11-18T06:19:34;101414.06;;;5.72;100.00
82413;BME280;72056;51.980;15.436;2023-11-18T06:22:01;101418.69;;;5.70;100.00
82413;BME280;72056;51.980;15.436;2023-11-18T06:24:28;101413.47;;;5.67;100.00
82413;BME280;72056;51.980;15.436;2023-11-18T06:26:55;101410.59;;;5.70;100.00
82413;BME280;72056;51.980;15.436;2023-11-18T06:29:29;101409.81;;;5.68;100.00
82413;BME280;72056;51.980;15.436;2023-11-18T06:31:56;101413.97;;;5.73;100.00
82413;BME280;72056;51.980;15.436;2023-11-18T06:34:22;101411.34;;;5.72;100.00
82413;BME280;72056;51.980;15.436;2023-11-18T06:36:53;101416.38;;;5.78;100.00
82413;BME280;72056;51.980;15.436;2023-11-18T06:39:20;101403.38;;;5.70;100.00
82413;BME280;72056;51.980;15.436;2023-11-18T06:41:54;101413.88;;;5.75;100.00
82413;BME280;72056;51.980;15.436;2023-11-18T06:44:21;101406.34;;;5.80;100.00
82413;BME280;72056;51.980;15.436;2023-11-18T06:46:49;101407.22;;;5.81;100.00
82413;BME280;72056;51.980;15.436;2023-11-18T06:49:18;101405.56;;;5.78;100.00
82413;BME280;72056;51.980;15.436;2023-11-18T06:51:45;101406.06;;;5.85;100.00
82413;BME280;72056;51.980;15.436;2023-11-18T06:54:12;101414.66;;;5.77;100.00
82413;BME280;72056;51.980;15.436;2023-11-18T06:56:41;101410.81;;;5.81;100.00
82413;BME280;72056;51.980;15.436;2023-11-18T06:59:13;101416.00;;;5.84;100.00
82413;BME280;72056;51.980;15.436;2023-11-18T07:01:40;101432.06;;;5.87;100.00
82413;BME280;72056;51.980;15.436;2023-11-18T07:04:13;101433.63;;;5.91;100.00
82413;BME280;72056;51.980;15.436;2023-11-18T07:06:42;101435.38;;;5.92;100.00
82413;BME280;72056;51.980;15.436;2023-11-18T07:09:09;101435.84;;;5.99;100.00
82413;BME280;72056;51.980;15.436;2023-11-18T07:11:47;101436.22;;;5.93;100.00
82413;BME280;72056;51.980;15.436;2023-11-18T07:14:13;101431.50;;;5.96;100.00
82413;BME280;72056;51.980;15.436;2023-11-18T07:16:43;101446.66;;;5.99;100.00
82413;BME280;72056;51.980;15.436;2023-11-18T07:19:16;101450.03;;;6.02;100.00
82413;BME280;72056;51.980;15.436;2023-11-18T07:21:49;101451.69;;;6.05;100.00
82413;BME280;72056;51.980;15.436;2023-11-18T07:24:16;101457.09;;;6.05;100.00
82413;BME280;72056;51.980;15.436;2023-11-18T07:26:46;101453.34;;;6.07;100.00
82413;BME280;72056;51.980;15.436;2023-11-18T07:29:20;101459.50;;;6.09;100.00
82413;BME280;72056;51.980;15.436;2023-11-18T07:31:53;101454.97;;;6.10;100.00
82413;BME280;72056;51.980;15.436;2023-11-18T07:34:22;101463.88;;;6.12;100.00
82413;BME280;72056;51.980;15.436;2023-11-18T07:36:52;101461.25;;;6.10;100.00
82413;BME280;72056;51.980;15.436;2023-11-18T07:39:19;101471.13;;;6.11;100.00
82413;BME280;72056;51.980;15.436;2023-11-18T07:42:02;101475.25;;;6.17;100.00
82413;BME280;72056;51.980;15.436;2023-11-18T07:44:33;101481.53;;;6.18;100.00
82413;BME280;72056;51.980;15.436;2023-11-18T07:47:00;101483.88;;;6.24;100.00
82413;BME280;72056;51.980;15.436;2023-11-18T07:49:27;101486.84;;;6.33;100.00
82413;BME280;72056;51.980;15.436;2023-11-18T07:51:54;101485.44;;;6.42;100.00
82413;BME280;72056;51.980;15.436;2023-11-18T07:54:22;101493.16;;;6.48;100.00
82413;BME280;72056;51.980;15.436;2023-11-18T07:56:50;101496.41;;;6.39;100.00
82413;BME280;72056;51.980;15.436;2023-11-18T07:59:20;101497.69;;;6.47;100.00
82413;BME280;72056;51.980;15.436;2023-11-18T08:01:48;101491.50;;;6.60;100.00
82413;BME280;72056;51.980;15.436;2023-11-18T08:04:16;101500.69;;;6.71;100.00
82413;BME280;72056;51.980;15.436;2023-11-18T08:06:47;101499.91;;;6.83;100.00
82413;BME280;72056;51.980;15.436;2023-11-18T08:09:14;101504.91;;;6.89;100.00
82413;BME280;72056;51.980;15.436;2023-11-18T08:11:48;101515.75;;;6.89;100.00
82413;BME280;72056;51.980;15.436;2023-11-18T08:14:17;101505.31;;;6.83;100.00
82413;BME280;72056;51.980;15.436;2023-11-18T08:16:44;101509.97;;;6.53;100.00
82413;BME280;72056;51.980;15.436;2023-11-18T08:19:12;101503.19;;;6.88;100.00
82413;BME280;72056;51.980;15.436;2023-11-18T08:21:40;101509.94;;;6.81;100.00
82413;BME280;72056;51.980;15.436;2023-11-18T08:24:11;101511.47;;;7.14;100.00
82413;BME280;72056;51.980;15.436;2023-11-18T08:26:38;101508.03;;;7.24;100.00
82413;BME280;72056;51.980;15.436;2023-11-18T08:29:09;101512.25;;;7.43;100.00
82413;BME280;72056;51.980;15.436;2023-11-18T08:31:38;101499.41;;;7.59;100.00
82413;BME280;72056;51.980;15.436;2023-11-18T08:34:10;101507.38;;;7.74;100.00
82413;BME280;72056;51.980;15.436;2023-11-18T08:36:36;101511.94;;;7.87;100.00
82413;BME280;72056;51.980;15.436;2023-11-18T08:39:08;101515.59;;;7.73;100.00
82413;BME280;72056;51.980;15.436;2023-11-18T08:41:37;101514.53;;;7.49;100.00
82413;BME280;72056;51.980;15.436;2023-11-18T08:44:06;101516.41;;;7.34;100.00
82413;BME280;72056;51.980;15.436;2023-11-18T08:46:35;101514.63;;;7.20;100.00
82413;BME280;72056;51.980;15.436;2023-11-18T08:49:03;101528.59;;;7.41;100.00
82413;BME280;72056;51.980;15.436;2023-11-18T08:51:38;101531.97;;;7.45;100.00
82413;BME280;72056;51.980;15.436;2023-11-18T08:54:09;101536.34;;;7.33;100.00
82413;BME280;72056;51.980;15.436;2023-11-18T08:56:48;101547.78;;;7.24;100.00
82413;BME280;72056;51.980;15.436;2023-11-18T08:59:23;101543.16;;;7.12;100.00
82413;BME280;72056;51.980;15.436;2023-11-18T09:01:54;101542.38;;;7.10;100.00
82413;BME280;72056;51.980;15.436;2023-11-18T09:04:27;101544.22;;;7.23;100.00
82413;BME280;72056;51.980;15.436;2023-11-18T09:06:53;101550.00;;;7.31;100.00
82413;BME280;72056;51.980;15.436;2023-11-18T09:09:29;101543.00;;;7.42;100.00
82413;BME280;72056;51.980;15.436;2023-11-18T09:12:04;101549.53;;;7.52;100.00
82413;BME280;72056;51.980;15.436;2023-11-18T09:14:34;101553.91;;;7.54;100.00
82413;BME280;72056;51.980;15.436;2023-11-18T09:17:02;101561.31;;;7.38;100.00
82413;BME280;72056;51.980;15.436;2023-11-18T09:19:32;101557.25;;;7.58;100.00
82413;BME280;72056;51.980;15.436;2023-11-18T09:21:59;101555.03;;;7.64;100.00
82413;BME280;72056;51.980;15.436;2023-11-18T09:24:26;101554.97;;;7.78;100.00
82413;BME280;72056;51.980;15.436;2023-11-18T09:26:52;101566.22;;;7.72;100.00
82413;BME280;72056;51.980;15.436;2023-11-18T09:29:21;101553.31;;;7.76;100.00
82413;BME280;72056;51.980;15.436;2023-11-18T09:31:52;101559.31;;;7.81;100.00
82413;BME280;72056;51.980;15.436;2023-11-18T09:34:20;101568.91;;;7.99;100.00
82413;BME280;72056;51.980;15.436;2023-11-18T09:36:54;101572.72;;;7.97;100.00
82413;BME280;72056;51.980;15.436;2023-11-18T09:39:21;101568.97;;;7.58;100.00
82413;BME280;72056;51.980;15.436;2023-11-18T09:42:05;101578.44;;;7.65;100.00
82413;BME280;72056;51.980;15.436;2023-11-18T09:44:36;101574.63;;;7.41;100.00
82413;BME280;72056;51.980;15.436;2023-11-18T09:47:07;101583.22;;;7.07;100.00
82413;BME280;72056;51.980;15.436;2023-11-18T09:49:40;101577.00;;;7.05;100.00
82413;BME280;72056;51.980;15.436;2023-11-18T09:52:16;101583.38;;;7.18;100.00
82413;BME280;72056;51.980;15.436;2023-11-18T09:55:14;101574.38;;;7.17;100.00
82413;BME280;72056;51.980;15.436;2023-11-18T09:57:44;101582.59;;;7.16;100.00
82413;BME280;72056;51.980;15.436;2023-11-18T10:00:26;101578.53;;;7.23;100.00
82413;BME280;72056;51.980;15.436;2023-11-18T10:02:53;101586.25;;;7.43;100.00
82413;BME280;72056;51.980;15.436;2023-11-18T10:05:24;101578.38;;;7.53;100.00
82413;BME280;72056;51.980;15.436;2023-11-18T10:07:52;101579.50;;;7.63;100.00
82413;BME280;72056;51.980;15.436;2023-11-18T10:10:20;101579.41;;;7.64;100.00
82413;BME280;72056;51.980;15.436;2023-11-18T10:12:48;101584.75;;;7.52;100.00
82413;BME280;72056;51.980;15.436;2023-11-18T10:15:21;101584.88;;;7.50;100.00
82413;BME280;72056;51.980;15.436;2023-11-18T10:17:52;101593.03;;;7.36;100.00
82413;BME280;72056;51.980;15.436;2023-11-18T10:20:46;101588.97;;;7.29;100.00
82413;BME280;72056;51.980;15.436;2023-11-18T10:23:32;101596.28;;;7.55;100.00
82413;BME280;72056;51.980;15.436;2023-11-18T10:26:04;101587.97;;;7.85;100.00
82413;BME280;72056;51.980;15.436;2023-11-18T10:28:36;101594.19;;;8.00;100.00
82413;BME280;72056;51.980;15.436;2023-11-18T10:31:07;101590.28;;;7.91;100.00
82413;BME280;72056;51.980;15.436;2023-11-18T10:33:40;101590.19;;;7.52;100.00
82413;BME280;72056;51.980;15.436;2023-11-18T10:36:23;101589.53;;;7.48;100.00
82413;BME280;72056;51.980;15.436;2023-11-18T10:38:52;101589.16;;;7.40;100.00
82413;BME280;72056;51.980;15.436;2023-11-18T10:41:23;101596.00;;;7.46;100.00
82413;BME280;72056;51.980;15.436;2023-11-18T10:44:05;101588.00;;;7.44;100.00
82413;BME280;72056;51.980;15.436;2023-11-18T10:46:35;101593.91;;;7.36;100.00
82413;BME280;72056;51.980;15.436;2023-11-18T10:49:03;101596.31;;;7.41;100.00
82413;BME280;72056;51.980;15.436;2023-11-18T10:51:35;101598.94;;;7.43;100.00
82413;BME280;72056;51.980;15.436;2023-11-18T10:54:04;101594.16;;;7.46;100.00
82413;BME280;72056;51.980;15.436;2023-11-18T10:56:32;101590.09;;;7.53;100.00
82413;BME280;72056;51.980;15.436;2023-11-18T10:59:04;101592.16;;;7.50;100.00
82413;BME280;72056;51.980;15.436;2023-11-18T11:01:39;101577.34;;;7.95;100.00
82413;BME280;72056;51.980;15.436;2023-11-18T11:04:17;101580.97;;;8.47;100.00
82413;BME280;72056;51.980;15.436;2023-11-18T11:07:02;101581.22;;;8.70;100.00
82413;BME280;72056;51.980;15.436;2023-11-18T11:09:54;101579.06;;;8.75;100.00
82413;BME280;72056;51.980;15.436;2023-11-18T11:12:59;101585.34;;;8.50;100.00
82413;BME280;72056;51.980;15.436;2023-11-18T11:16:02;101579.56;;;8.42;100.00
82413;BME280;72056;51.980;15.436;2023-11-18T11:18:40;101584.91;;;8.16;100.00
82413;BME280;72056;51.980;15.436;2023-11-18T11:21:19;101591.47;;;8.00;100.00
82413;BME280;72056;51.980;15.436;2023-11-18T11:27:34;101598.19;;;7.67;100.00
82413;BME280;72056;51.980;15.436;2023-11-18T11:30:22;101600.38;;;7.34;100.00
82413;BME280;72056;51.980;15.436;2023-11-18T11:35:37;101596.41;;;7.39;100.00
82413;BME280;72056;51.980;15.436;2023-11-18T11:38:06;101594.94;;;7.48;100.00
82413;BME280;72056;51.980;15.436;2023-11-18T11:40:43;101600.75;;;7.42;100.00
82413;BME280;72056;51.980;15.436;2023-11-18T11:43:16;101601.16;;;7.36;100.00
82413;BME280;72056;51.980;15.436;2023-11-18T11:45:51;101592.47;;;7.31;100.00
82413;BME280;72056;51.980;15.436;2023-11-18T11:48:33;101600.50;;;7.18;100.00
82413;BME280;72056;51.980;15.436;2023-11-18T11:51:26;101600.69;;;7.15;100.00
82413;BME280;72056;51.980;15.436;2023-11-18T11:54:21;101600.72;;;7.01;100.00
82413;BME280;72056;51.980;15.436;2023-11-18T11:57:25;101603.41;;;7.01;100.00
82413;BME280;72056;51.980;15.436;2023-11-18T12:00:33;101598.59;;;7.06;100.00
82413;BME280;72056;51.980;15.436;2023-11-18T12:03:39;101594.50;;;6.99;100.00
82413;BME280;72056;51.980;15.436;2023-11-18T12:07:08;101595.38;;;7.00;100.00
82413;BME280;72056;51.980;15.436;2023-11-18T12:10:14;101597.69;;;6.91;100.00
82413;BME280;72056;51.980;15.436;2023-11-18T12:13:10;101602.06;;;7.08;100.00
82413;BME280;72056;51.980;15.436;2023-11-18T12:15:57;101605.06;;;7.18;100.00
82413;BME280;72056;51.980;15.436;2023-11-18T12:18:33;101608.03;;;7.27;100.00
82413;BME280;72056;51.980;15.436;2023-11-18T12:21:03;101595.94;;;7.33;100.00
82413;BME280;72056;51.980;15.436;2023-11-18T12:23:30;101600.84;;;7.41;100.00
82413;BME280;72056;51.980;15.436;2023-11-18T12:26:37;101607.53;;;7.49;100.00
82413;BME280;72056;51.980;15.436;2023-11-18T12:29:34;101605.63;;;7.64;100.00
82413;BME280;72056;51.980;15.436;2023-11-18T12:41:34;101588.16;;;8.86;100.00
82413;BME280;72056;51.980;15.436;2023-11-18T12:47:24;101588.91;;;8.50;100.00
82413;BME280;72056;51.980;15.436;2023-11-18T12:50:14;101575.53;;;8.35;100.00
82413;BME280;72056;51.980;15.436;2023-11-18T12:53:43;101569.66;;;8.28;100.00
82413;BME280;72056;51.980;15.436;2023-11-18T12:56:49;101563.63;;;8.63;100.00
82413;BME280;72056;51.980;15.436;2023-11-18T12:59:55;101572.22;;;8.69;100.00
82413;BME280;72056;51.980;15.436;2023-11-18T13:03:21;101562.63;;;9.98;100.00
82413;BME280;72056;51.980;15.436;2023-11-18T13:06:30;101557.78;;;11.27;100.00
82413;BME280;72056;51.980;15.436;2023-11-18T13:08:57;101564.06;;;12.15;100.00
82413;BME280;72056;51.980;15.436;2023-11-18T13:11:43;101570.28;;;12.06;100.00
82413;BME280;72056;51.980;15.436;2023-11-18T13:14:51;101567.38;;;11.87;100.00
82413;BME280;72056;51.980;15.436;2023-11-18T13:17:19;101564.59;;;11.33;100.00
82413;BME280;72056;51.980;15.436;2023-11-18T13:19:51;101569.75;;;11.80;100.00
82413;BME280;72056;51.980;15.436;2023-11-18T13:22:20;101572.00;;;11.64;100.00
82413;BME280;72056;51.980;15.436;2023-11-18T13:24:49;101577.00;;;12.02;100.00
82413;BME280;72056;51.980;15.436;2023-11-18T13:27:18;101578.22;;;11.44;100.00
82413;BME280;72056;51.980;15.436;2023-11-18T13:29:47;101585.97;;;10.48;100.00